Burr, Nebraska
Current Conditions -  °F | °C
As of 1:55 AM on Thursday 23 Oct 2014 (Local Time) from KAFK Reporting Station
Light Rain Light Rain  
Wind Chill: 60°   Ceiling: 8000
Heat Index: 60°   Visibility: 5mi
Dew Point: 60°   Wind: 7mph
Humidity: 100%   Direction: 180°S
Pressure: 30.05"   Gusts: NA
Location:  40.54°N, 96.3°W
Report Text: KAFK 230655Z AUTO 18006KT 5SM -RA SCT060 BKN080 BKN110 16/16 A3005 RMK AO2 P0001 T01580158
Loading
Personal Weather Stations






























Interactive Weather Map
Tropical Storm Tracking
New forecast layout! Learn more

10-Day Weather Forecast

Advertisements
Track Severe Weather on mobile